sensor_id;sensor_type;location;lat;lon;timestamp;temperature;humidity
26595;DHT22;14238;49.496;8.154;2023-05-07T00:00:37;14.10;99.90
26595;DHT22;14238;49.496;8.154;2023-05-07T00:03:03;14.00;99.90
26595;DHT22;14238;49.496;8.154;2023-05-07T00:05:28;14.00;99.90
26595;DHT22;14238;49.496;8.154;2023-05-07T00:07:54;14.00;99.90
26595;DHT22;14238;49.496;8.154;2023-05-07T00:10:20;13.90;99.90
26595;DHT22;14238;49.496;8.154;2023-05-07T00:12:45;13.80;99.90
26595;DHT22;14238;49.496;8.154;2023-05-07T00:15:11;13.80;99.90
26595;DHT22;14238;49.496;8.154;2023-05-07T00:17:37;13.70;99.90
26595;DHT22;14238;49.496;8.154;2023-05-07T00:20:03;13.70;99.90
26595;DHT22;14238;49.496;8.154;2023-05-07T00:22:30;13.70;99.90
26595;DHT22;14238;49.496;8.154;2023-05-07T00:24:56;13.60;99.90
26595;DHT22;14238;49.496;8.154;2023-05-07T00:27:22;13.60;99.90
26595;DHT22;14238;49.496;8.154;2023-05-07T00:29:48;13.50;99.90
26595;DHT22;14238;49.496;8.154;2023-05-07T00:32:13;13.40;99.90
26595;DHT22;14238;49.496;8.154;2023-05-07T00:34:39;13.40;99.90
26595;DHT22;14238;49.496;8.154;2023-05-07T00:37:05;13.40;99.90
26595;DHT22;14238;49.496;8.154;2023-05-07T00:39:32;13.30;99.90
26595;DHT22;14238;49.496;8.154;2023-05-07T00:41:58;13.30;99.90
26595;DHT22;14238;49.496;8.154;2023-05-07T00:44:24;13.30;99.90
26595;DHT22;14238;49.496;8.154;2023-05-07T00:46:49;13.30;99.90
26595;DHT22;14238;49.496;8.154;2023-05-07T00:49:15;13.20;99.90
26595;DHT22;14238;49.496;8.154;2023-05-07T00:51:41;13.20;99.90
26595;DHT22;14238;49.496;8.154;2023-05-07T00:54:07;13.30;99.90
26595;DHT22;14238;49.496;8.154;2023-05-07T00:56:34;13.30;99.90
26595;DHT22;14238;49.496;8.154;2023-05-07T00:59:01;13.30;99.90
26595;DHT22;14238;49.496;8.154;2023-05-07T01:01:27;13.10;99.90
26595;DHT22;14238;49.496;8.154;2023-05-07T01:03:53;13.10;99.90
26595;DHT22;14238;49.496;8.154;2023-05-07T01:06:19;13.10;99.90
26595;DHT22;14238;49.496;8.154;2023-05-07T01:08:46;13.00;99.90
26595;DHT22;14238;49.496;8.154;2023-05-07T01:11:12;13.10;99.90
26595;DHT22;14238;49.496;8.154;2023-05-07T01:13:39;13.20;99.90
26595;DHT22;14238;49.496;8.154;2023-05-07T01:16:06;13.10;99.90
26595;DHT22;14238;49.496;8.154;2023-05-07T01:18:32;13.20;99.90
26595;DHT22;14238;49.496;8.154;2023-05-07T01:20:58;13.10;99.90
26595;DHT22;14238;49.496;8.154;2023-05-07T01:23:25;13.10;99.90
26595;DHT22;14238;49.496;8.154;2023-05-07T01:25:53;13.20;99.90
26595;DHT22;14238;49.496;8.154;2023-05-07T01:28:19;13.20;99.90
26595;DHT22;14238;49.496;8.154;2023-05-07T01:30:47;13.10;99.90
26595;DHT22;14238;49.496;8.154;2023-05-07T01:33:15;13.00;99.90
26595;DHT22;14238;49.496;8.154;2023-05-07T01:35:43;13.00;99.90
26595;DHT22;14238;49.496;8.154;2023-05-07T01:38:11;13.00;99.90
26595;DHT22;14238;49.496;8.154;2023-05-07T01:40:37;12.90;99.90
26595;DHT22;14238;49.496;8.154;2023-05-07T01:43:03;12.90;99.90
26595;DHT22;14238;49.496;8.154;2023-05-07T01:45:30;12.80;99.90
26595;DHT22;14238;49.496;8.154;2023-05-07T01:47:58;12.90;99.90
26595;DHT22;14238;49.496;8.154;2023-05-07T01:50:25;12.70;99.90
26595;DHT22;14238;49.496;8.154;2023-05-07T01:52:51;12.70;99.90
26595;DHT22;14238;49.496;8.154;2023-05-07T01:55:17;12.60;99.90
26595;DHT22;14238;49.496;8.154;2023-05-07T01:57:43;12.70;99.90
26595;DHT22;14238;49.496;8.154;2023-05-07T02:00:08;12.60;99.90
26595;DHT22;14238;49.496;8.154;2023-05-07T02:02:35;12.60;99.90
26595;DHT22;14238;49.496;8.154;2023-05-07T02:05:00;12.60;99.90
26595;DHT22;14238;49.496;8.154;2023-05-07T02:07:27;12.50;99.90
26595;DHT22;14238;49.496;8.154;2023-05-07T02:09:53;12.40;99.90
26595;DHT22;14238;49.496;8.154;2023-05-07T02:12:19;12.50;99.90
26595;DHT22;14238;49.496;8.154;2023-05-07T02:14:44;12.30;99.90
26595;DHT22;14238;49.496;8.154;2023-05-07T02:17:10;12.40;99.90
26595;DHT22;14238;49.496;8.154;2023-05-07T02:19:35;12.40;99.90
26595;DHT22;14238;49.496;8.154;2023-05-07T02:22:01;12.40;99.90
26595;DHT22;14238;49.496;8.154;2023-05-07T02:24:26;12.30;99.90
26595;DHT22;14238;49.496;8.154;2023-05-07T02:26:52;12.20;99.90
26595;DHT22;14238;49.496;8.154;2023-05-07T02:29:17;12.20;99.90
26595;DHT22;14238;49.496;8.154;2023-05-07T02:31:43;12.20;99.90
26595;DHT22;14238;49.496;8.154;2023-05-07T02:34:08;12.20;99.90
26595;DHT22;14238;49.496;8.154;2023-05-07T02:36:34;12.20;99.90
26595;DHT22;14238;49.496;8.154;2023-05-07T02:39:00;12.20;99.90
26595;DHT22;14238;49.496;8.154;2023-05-07T02:41:25;12.20;99.90
26595;DHT22;14238;49.496;8.154;2023-05-07T02:43:51;12.10;99.90
26595;DHT22;14238;49.496;8.154;2023-05-07T02:46:16;12.10;99.90
26595;DHT22;14238;49.496;8.154;2023-05-07T02:48:42;12.00;99.90
26595;DHT22;14238;49.496;8.154;2023-05-07T02:51:08;11.90;99.90
26595;DHT22;14238;49.496;8.154;2023-05-07T02:53:33;11.90;99.90
26595;DHT22;14238;49.496;8.154;2023-05-07T02:56:00;12.00;99.90
26595;DHT22;14238;49.496;8.154;2023-05-07T02:58:26;12.00;99.90
26595;DHT22;14238;49.496;8.154;2023-05-07T03:00:53;11.90;99.90
26595;DHT22;14238;49.496;8.154;2023-05-07T03:03:20;11.80;99.90
26595;DHT22;14238;49.496;8.154;2023-05-07T03:05:46;11.80;99.90
26595;DHT22;14238;49.496;8.154;2023-05-07T03:08:12;11.90;99.90
26595;DHT22;14238;49.496;8.154;2023-05-07T03:10:38;11.90;99.90
26595;DHT22;14238;49.496;8.154;2023-05-07T03:13:04;11.70;99.90
26595;DHT22;14238;49.496;8.154;2023-05-07T03:15:29;11.80;99.90
26595;DHT22;14238;49.496;8.154;2023-05-07T03:17:56;11.90;99.90
26595;DHT22;14238;49.496;8.154;2023-05-07T03:20:21;11.80;99.90
26595;DHT22;14238;49.496;8.154;2023-05-07T03:22:47;11.80;99.90
26595;DHT22;14238;49.496;8.154;2023-05-07T03:25:12;11.80;99.90
26595;DHT22;14238;49.496;8.154;2023-05-07T03:27:39;11.80;99.90
26595;DHT22;14238;49.496;8.154;2023-05-07T03:30:05;11.70;99.90
26595;DHT22;14238;49.496;8.154;2023-05-07T03:32:32;11.80;99.90
26595;DHT22;14238;49.496;8.154;2023-05-07T03:34:57;11.80;99.90
26595;DHT22;14238;49.496;8.154;2023-05-07T03:37:23;11.80;99.90
26595;DHT22;14238;49.496;8.154;2023-05-07T03:39:48;11.70;99.90
26595;DHT22;14238;49.496;8.154;2023-05-07T03:42:14;11.70;99.90
26595;DHT22;14238;49.496;8.154;2023-05-07T03:44:40;11.70;99.90
26595;DHT22;14238;49.496;8.154;2023-05-07T03:47:05;11.60;99.90
26595;DHT22;14238;49.496;8.154;2023-05-07T03:49:31;11.60;99.90
26595;DHT22;14238;49.496;8.154;2023-05-07T03:51:56;11.50;99.90
26595;DHT22;14238;49.496;8.154;2023-05-07T03:54:22;11.60;99.90
26595;DHT22;14238;49.496;8.154;2023-05-07T03:56:48;11.50;99.90
26595;DHT22;14238;49.496;8.154;2023-05-07T03:59:13;11.60;99.90
26595;DHT22;14238;49.496;8.154;2023-05-07T04:01:39;11.60;99.90
26595;DHT22;14238;49.496;8.154;2023-05-07T04:04:05;11.60;99.90
26595;DHT22;14238;49.496;8.154;2023-05-07T04:06:30;11.50;99.90
26595;DHT22;14238;49.496;8.154;2023-05-07T04:08:56;11.40;99.90
26595;DHT22;14238;49.496;8.154;2023-05-07T04:11:22;11.50;99.90
26595;DHT22;14238;49.496;8.154;2023-05-07T04:13:48;11.50;99.90
26595;DHT22;14238;49.496;8.154;2023-05-07T04:16:13;11.50;99.90
26595;DHT22;14238;49.496;8.154;2023-05-07T04:18:39;11.50;99.90
26595;DHT22;14238;49.496;8.154;2023-05-07T04:21:05;11.60;99.90
26595;DHT22;14238;49.496;8.154;2023-05-07T04:23:31;11.60;99.90
26595;DHT22;14238;49.496;8.154;2023-05-07T04:25:56;11.60;99.90
26595;DHT22;14238;49.496;8.154;2023-05-07T04:28:22;11.60;99.90
26595;DHT22;14238;49.496;8.154;2023-05-07T04:30:48;11.70;99.90
26595;DHT22;14238;49.496;8.154;2023-05-07T04:33:14;11.70;99.90
26595;DHT22;14238;49.496;8.154;2023-05-07T04:35:42;11.80;99.90
26595;DHT22;14238;49.496;8.154;2023-05-07T04:38:07;11.90;99.90
26595;DHT22;14238;49.496;8.154;2023-05-07T04:40:35;11.90;99.90
26595;DHT22;14238;49.496;8.154;2023-05-07T04:43:00;12.00;99.90
26595;DHT22;14238;49.496;8.154;2023-05-07T04:45:26;12.10;99.90
26595;DHT22;14238;49.496;8.154;2023-05-07T04:47:52;12.10;99.90
26595;DHT22;14238;49.496;8.154;2023-05-07T04:50:17;12.10;99.90
26595;DHT22;14238;49.496;8.154;2023-05-07T04:52:46;12.20;99.90
26595;DHT22;14238;49.496;8.154;2023-05-07T04:55:11;12.30;99.90
26595;DHT22;14238;49.496;8.154;2023-05-07T04:57:37;12.40;99.90
26595;DHT22;14238;49.496;8.154;2023-05-07T05:00:06;12.50;99.90
26595;DHT22;14238;49.496;8.154;2023-05-07T05:02:33;12.60;99.90
26595;DHT22;14238;49.496;8.154;2023-05-07T05:04:59;12.70;99.90
26595;DHT22;14238;49.496;8.154;2023-05-07T05:07:25;12.80;99.90
26595;DHT22;14238;49.496;8.154;2023-05-07T05:09:50;12.90;99.90
26595;DHT22;14238;49.496;8.154;2023-05-07T05:12:16;12.90;99.90
26595;DHT22;14238;49.496;8.154;2023-05-07T05:14:41;13.10;99.90
26595;DHT22;14238;49.496;8.154;2023-05-07T05:17:08;13.20;99.90
26595;DHT22;14238;49.496;8.154;2023-05-07T05:19:33;13.30;99.90
26595;DHT22;14238;49.496;8.154;2023-05-07T05:21:59;13.40;99.90
26595;DHT22;14238;49.496;8.154;2023-05-07T05:24:27;13.40;99.90
26595;DHT22;14238;49.496;8.154;2023-05-07T05:26:53;13.50;99.90
26595;DHT22;14238;49.496;8.154;2023-05-07T05:29:19;13.60;99.90
26595;DHT22;14238;49.496;8.154;2023-05-07T05:31:45;13.70;99.90
26595;DHT22;14238;49.496;8.154;2023-05-07T05:34:10;13.80;99.90
26595;DHT22;14238;49.496;8.154;2023-05-07T05:36:36;13.90;99.90
26595;DHT22;14238;49.496;8.154;2023-05-07T05:39:02;14.00;99.90
26595;DHT22;14238;49.496;8.154;2023-05-07T05:41:27;14.10;99.90
26595;DHT22;14238;49.496;8.154;2023-05-07T05:43:53;14.20;99.90
26595;DHT22;14238;49.496;8.154;2023-05-07T05:46:18;14.20;99.90
26595;DHT22;14238;49.496;8.154;2023-05-07T05:48:44;14.30;99.90
26595;DHT22;14238;49.496;8.154;2023-05-07T05:51:09;14.40;99.90
26595;DHT22;14238;49.496;8.154;2023-05-07T05:53:35;14.60;99.90
26595;DHT22;14238;49.496;8.154;2023-05-07T05:56:01;14.80;99.90
26595;DHT22;14238;49.496;8.154;2023-05-07T05:58:26;14.90;99.90
26595;DHT22;14238;49.496;8.154;2023-05-07T06:00:52;15.00;99.90
26595;DHT22;14238;49.496;8.154;2023-05-07T06:03:18;15.10;99.90
26595;DHT22;14238;49.496;8.154;2023-05-07T06:05:44;15.20;99.90
26595;DHT22;14238;49.496;8.154;2023-05-07T06:08:09;15.30;99.90
26595;DHT22;14238;49.496;8.154;2023-05-07T06:10:36;15.40;99.90
26595;DHT22;14238;49.496;8.154;2023-05-07T06:13:02;15.40;99.90
26595;DHT22;14238;49.496;8.154;2023-05-07T06:15:28;15.50;99.90
26595;DHT22;14238;49.496;8.154;2023-05-07T06:17:53;15.50;99.90
26595;DHT22;14238;49.496;8.154;2023-05-07T06:20:21;15.60;99.90
26595;DHT22;14238;49.496;8.154;2023-05-07T06:22:46;15.60;99.90
26595;DHT22;14238;49.496;8.154;2023-05-07T06:25:13;15.70;99.90
26595;DHT22;14238;49.496;8.154;2023-05-07T06:27:39;15.80;99.90
26595;DHT22;14238;49.496;8.154;2023-05-07T06:30:06;15.80;99.90
26595;DHT22;14238;49.496;8.154;2023-05-07T06:32:31;15.90;99.90
26595;DHT22;14238;49.496;8.154;2023-05-07T06:34:57;16.00;99.90
26595;DHT22;14238;49.496;8.154;2023-05-07T06:37:23;16.00;99.90
26595;DHT22;14238;49.496;8.154;2023-05-07T06:39:48;16.00;99.90
26595;DHT22;14238;49.496;8.154;2023-05-07T06:42:14;16.10;99.90
26595;DHT22;14238;49.496;8.154;2023-05-07T06:44:39;16.00;99.90
26595;DHT22;14238;49.496;8.154;2023-05-07T06:47:05;16.10;99.90
26595;DHT22;14238;49.496;8.154;2023-05-07T06:49:30;16.10;99.90
26595;DHT22;14238;49.496;8.154;2023-05-07T06:51:58;16.20;99.90
26595;DHT22;14238;49.496;8.154;2023-05-07T06:54:24;16.40;99.90
26595;DHT22;14238;49.496;8.154;2023-05-07T06:56:49;16.60;99.90
26595;DHT22;14238;49.496;8.154;2023-05-07T06:59:15;16.60;99.90
26595;DHT22;14238;49.496;8.154;2023-05-07T07:01:41;16.60;99.90
26595;DHT22;14238;49.496;8.154;2023-05-07T07:04:07;16.70;99.90
26595;DHT22;14238;49.496;8.154;2023-05-07T07:06:32;16.70;99.90
26595;DHT22;14238;49.496;8.154;2023-05-07T07:08:59;16.80;99.90
26595;DHT22;14238;49.496;8.154;2023-05-07T07:11:25;16.80;99.90
26595;DHT22;14238;49.496;8.154;2023-05-07T07:13:50;16.90;99.90
26595;DHT22;14238;49.496;8.154;2023-05-07T07:16:16;16.90;99.90
26595;DHT22;14238;49.496;8.154;2023-05-07T07:18:42;17.10;99.90
26595;DHT22;14238;49.496;8.154;2023-05-07T07:21:07;17.20;99.90
26595;DHT22;14238;49.496;8.154;2023-05-07T07:23:33;17.20;99.90
26595;DHT22;14238;49.496;8.154;2023-05-07T07:25:58;17.30;99.90
26595;DHT22;14238;49.496;8.154;2023-05-07T07:28:24;17.30;99.90
26595;DHT22;14238;49.496;8.154;2023-05-07T07:30:50;17.20;99.90
26595;DHT22;14238;49.496;8.154;2023-05-07T07:33:15;17.20;99.90
26595;DHT22;14238;49.496;8.154;2023-05-07T07:35:41;17.30;99.90
26595;DHT22;14238;49.496;8.154;2023-05-07T07:38:06;17.30;99.90
26595;DHT22;14238;49.496;8.154;2023-05-07T07:40:34;17.30;99.90
26595;DHT22;14238;49.496;8.154;2023-05-07T07:43:00;17.30;99.90
26595;DHT22;14238;49.496;8.154;2023-05-07T07:45:26;17.30;99.90
26595;DHT22;14238;49.496;8.154;2023-05-07T07:47:52;17.50;99.90
26595;DHT22;14238;49.496;8.154;2023-05-07T07:50:17;17.60;99.90
26595;DHT22;14238;49.496;8.154;2023-05-07T07:52:43;17.70;99.90
26595;DHT22;14238;49.496;8.154;2023-05-07T07:55:09;17.90;99.90
26595;DHT22;14238;49.496;8.154;2023-05-07T07:57:35;17.80;99.90
26595;DHT22;14238;49.496;8.154;2023-05-07T08:00:00;17.80;99.90
26595;DHT22;14238;49.496;8.154;2023-05-07T08:02:26;17.80;99.90
26595;DHT22;14238;49.496;8.154;2023-05-07T08:04:51;17.90;99.90
26595;DHT22;14238;49.496;8.154;2023-05-07T08:07:17;17.90;99.90
26595;DHT22;14238;49.496;8.154;2023-05-07T08:09:45;17.90;99.90
26595;DHT22;14238;49.496;8.154;2023-05-07T08:12:11;18.00;99.90
26595;DHT22;14238;49.496;8.154;2023-05-07T08:14:37;18.10;99.90
26595;DHT22;14238;49.496;8.154;2023-05-07T08:17:02;18.00;99.90
26595;DHT22;14238;49.496;8.154;2023-05-07T08:19:28;18.00;99.90
26595;DHT22;14238;49.496;8.154;2023-05-07T08:21:55;18.30;99.90
26595;DHT22;14238;49.496;8.154;2023-05-07T08:24:21;18.60;99.90
26595;DHT22;14238;49.496;8.154;2023-05-07T08:26:46;18.50;99.90
26595;DHT22;14238;49.496;8.154;2023-05-07T08:29:12;18.60;99.90
26595;DHT22;14238;49.496;8.154;2023-05-07T08:31:37;18.60;99.90
26595;DHT22;14238;49.496;8.154;2023-05-07T08:34:06;18.40;99.90
26595;DHT22;14238;49.496;8.154;2023-05-07T08:36:32;18.40;99.90
26595;DHT22;14238;49.496;8.154;2023-05-07T08:38:57;18.50;99.90
26595;DHT22;14238;49.496;8.154;2023-05-07T08:41:23;18.60;99.90
26595;DHT22;14238;49.496;8.154;2023-05-07T08:43:49;18.50;99.90
26595;DHT22;14238;49.496;8.154;2023-05-07T08:46:20;18.70;99.90
26595;DHT22;14238;49.496;8.154;2023-05-07T08:48:49;18.60;99.90
26595;DHT22;14238;49.496;8.154;2023-05-07T08:51:17;18.80;99.90
26595;DHT22;14238;49.496;8.154;2023-05-07T08:53:43;18.80;99.90
26595;DHT22;14238;49.496;8.154;2023-05-07T08:56:09;18.90;99.90
26595;DHT22;14238;49.496;8.154;2023-05-07T08:58:35;19.20;99.90
26595;DHT22;14238;49.496;8.154;2023-05-07T09:01:05;19.50;99.90
26595;DHT22;14238;49.496;8.154;2023-05-07T09:03:32;19.50;99.90
26595;DHT22;14238;49.496;8.154;2023-05-07T09:05:58;19.30;99.90
26595;DHT22;14238;49.496;8.154;2023-05-07T09:08:27;19.40;99.90
26595;DHT22;14238;49.496;8.154;2023-05-07T09:10:53;19.70;99.90
26595;DHT22;14238;49.496;8.154;2023-05-07T09:13:19;20.00;99.90
26595;DHT22;14238;49.496;8.154;2023-05-07T09:15:45;20.70;99.90
26595;DHT22;14238;49.496;8.154;2023-05-07T09:18:11;21.20;99.90
26595;DHT22;14238;49.496;8.154;2023-05-07T09:20:37;21.50;99.90
26595;DHT22;14238;49.496;8.154;2023-05-07T09:23:03;21.10;99.90
26595;DHT22;14238;49.496;8.154;2023-05-07T09:25:30;21.20;99.90
26595;DHT22;14238;49.496;8.154;2023-05-07T09:27:56;21.50;99.90
26595;DHT22;14238;49.496;8.154;2023-05-07T09:30:22;21.60;99.90
26595;DHT22;14238;49.496;8.154;2023-05-07T09:32:47;21.40;99.90
26595;DHT22;14238;49.496;8.154;2023-05-07T09:35:16;21.40;99.90
26595;DHT22;14238;49.496;8.154;2023-05-07T09:37:43;21.40;99.90
26595;DHT22;14238;49.496;8.154;2023-05-07T09:40:23;21.30;99.90
26595;DHT22;14238;49.496;8.154;2023-05-07T09:42:49;21.10;99.90
26595;DHT22;14238;49.496;8.154;2023-05-07T09:45:25;21.50;99.90
26595;DHT22;14238;49.496;8.154;2023-05-07T09:47:56;21.80;99.90
26595;DHT22;14238;49.496;8.154;2023-05-07T09:50:29;22.80;99.90
26595;DHT22;14238;49.496;8.154;2023-05-07T09:52:56;23.70;99.90
26595;DHT22;14238;49.496;8.154;2023-05-07T09:55:23;24.40;99.90
26595;DHT22;14238;49.496;8.154;2023-05-07T09:57:53;24.60;99.90
26595;DHT22;14238;49.496;8.154;2023-05-07T10:00:19;24.60;99.90
26595;DHT22;14238;49.496;8.154;2023-05-07T10:02:50;24.40;99.90
26595;DHT22;14238;49.496;8.154;2023-05-07T10:05:18;25.10;99.90
26595;DHT22;14238;49.496;8.154;2023-05-07T10:07:46;25.40;99.90
26595;DHT22;14238;49.496;8.154;2023-05-07T10:10:12;25.90;99.90
26595;DHT22;14238;49.496;8.154;2023-05-07T10:12:40;26.10;99.90
26595;DHT22;14238;49.496;8.154;2023-05-07T10:15:10;25.30;99.90
26595;DHT22;14238;49.496;8.154;2023-05-07T10:17:39;24.50;99.90
26595;DHT22;14238;49.496;8.154;2023-05-07T10:20:06;23.30;99.90
26595;DHT22;14238;49.496;8.154;2023-05-07T10:22:38;23.30;99.90
26595;DHT22;14238;49.496;8.154;2023-05-07T10:25:09;24.20;99.90
26595;DHT22;14238;49.496;8.154;2023-05-07T10:27:39;23.70;99.90
26595;DHT22;14238;49.496;8.154;2023-05-07T10:32:52;23.20;99.90
26595;DHT22;14238;49.496;8.154;2023-05-07T10:35:26;24.30;99.90
26595;DHT22;14238;49.496;8.154;2023-05-07T10:37:54;25.30;99.90
26595;DHT22;14238;49.496;8.154;2023-05-07T10:40:20;25.90;99.90
26595;DHT22;14238;49.496;8.154;2023-05-07T10:43:03;26.20;99.90
26595;DHT22;14238;49.496;8.154;2023-05-07T10:45:32;26.00;99.90
26595;DHT22;14238;49.496;8.154;2023-05-07T10:48:15;26.10;99.90
26595;DHT22;14238;49.496;8.154;2023-05-07T10:50:42;26.30;99.70
26595;DHT22;14238;49.496;8.154;2023-05-07T10:55:44;25.80;99.90
26595;DHT22;14238;49.496;8.154;2023-05-07T11:00:48;27.10;99.90
26595;DHT22;14238;49.496;8.154;2023-05-07T11:03:14;27.10;99.90
26595;DHT22;14238;49.496;8.154;2023-05-07T11:05:41;27.10;99.90
26595;DHT22;14238;49.496;8.154;2023-05-07T11:08:08;27.30;99.30
26595;DHT22;14238;49.496;8.154;2023-05-07T11:10:54;27.30;99.40
26595;DHT22;14238;49.496;8.154;2023-05-07T11:13:45;26.80;99.90
26595;DHT22;14238;49.496;8.154;2023-05-07T11:16:22;26.60;99.90
26595;DHT22;14238;49.496;8.154;2023-05-07T11:18:55;27.10;99.90
26595;DHT22;14238;49.496;8.154;2023-05-07T11:21:38;27.50;99.90
26595;DHT22;14238;49.496;8.154;2023-05-07T11:24:08;26.30;99.60
26595;DHT22;14238;49.496;8.154;2023-05-07T11:26:47;25.90;99.90
26595;DHT22;14238;49.496;8.154;2023-05-07T11:29:18;26.50;99.90
26595;DHT22;14238;49.496;8.154;2023-05-07T11:31:51;26.10;99.90
26595;DHT22;14238;49.496;8.154;2023-05-07T11:34:25;26.00;99.90
26595;DHT22;14238;49.496;8.154;2023-05-07T11:36:52;27.20;99.90
26595;DHT22;14238;49.496;8.154;2023-05-07T11:39:25;27.30;99.60
26595;DHT22;14238;49.496;8.154;2023-05-07T11:41:51;27.10;99.30
26595;DHT22;14238;49.496;8.154;2023-05-07T11:44:16;27.60;99.50
26595;DHT22;14238;49.496;8.154;2023-05-07T11:46:45;28.10;98.30
26595;DHT22;14238;49.496;8.154;2023-05-07T11:49:12;27.10;99.40
26595;DHT22;14238;49.496;8.154;2023-05-07T11:51:38;27.60;98.70
26595;DHT22;14238;49.496;8.154;2023-05-07T11:54:04;27.40;99.00
26595;DHT22;14238;49.496;8.154;2023-05-07T11:56:34;28.30;98.50
26595;DHT22;14238;49.496;8.154;2023-05-07T11:59:00;28.00;97.40
26595;DHT22;14238;49.496;8.154;2023-05-07T12:01:26;28.00;98.40
26595;DHT22;14238;49.496;8.154;2023-05-07T12:03:52;27.30;98.20
26595;DHT22;14238;49.496;8.154;2023-05-07T12:06:18;26.80;98.10
26595;DHT22;14238;49.496;8.154;2023-05-07T12:08:44;26.20;99.30
26595;DHT22;14238;49.496;8.154;2023-05-07T12:11:15;26.10;99.70
26595;DHT22;14238;49.496;8.154;2023-05-07T12:13:41;26.10;99.80
26595;DHT22;14238;49.496;8.154;2023-05-07T12:16:07;25.70;99.60
26595;DHT22;14238;49.496;8.154;2023-05-07T12:18:34;25.20;99.90
26595;DHT22;14238;49.496;8.154;2023-05-07T12:21:01;25.10;99.90
26595;DHT22;14238;49.496;8.154;2023-05-07T12:23:27;24.70;99.90
26595;DHT22;14238;49.496;8.154;2023-05-07T12:25:53;24.40;99.90
26595;DHT22;14238;49.496;8.154;2023-05-07T12:28:19;24.30;99.90
26595;DHT22;14238;49.496;8.154;2023-05-07T12:30:47;24.30;99.90
26595;DHT22;14238;49.496;8.154;2023-05-07T12:33:17;24.10;99.90
26595;DHT22;14238;49.496;8.154;2023-05-07T12:35:43;24.10;99.90
26595;DHT22;14238;49.496;8.154;2023-05-07T12:38:13;24.00;99.90
26595;DHT22;14238;49.496;8.154;2023-05-07T12:40:44;23.80;99.90
26595;DHT22;14238;49.496;8.154;2023-05-07T12:43:21;23.70;99.90
26595;DHT22;14238;49.496;8.154;2023-05-07T12:45:48;23.70;99.90
26595;DHT22;14238;49.496;8.154;2023-05-07T12:48:14;23.50;99.90
26595;DHT22;14238;49.496;8.154;2023-05-07T12:50:40;23.30;99.90
26595;DHT22;14238;49.496;8.154;2023-05-07T12:53:07;23.20;99.90
26595;DHT22;14238;49.496;8.154;2023-05-07T12:55:50;23.20;99.90
26595;DHT22;14238;49.496;8.154;2023-05-07T12:58:36;22.90;99.90
26595;DHT22;14238;49.496;8.154;2023-05-07T13:01:05;22.50;99.90
26595;DHT22;14238;49.496;8.154;2023-05-07T13:03:36;22.40;99.90
26595;DHT22;14238;49.496;8.154;2023-05-07T13:06:04;22.20;99.90
26595;DHT22;14238;49.496;8.154;2023-05-07T13:08:32;22.20;99.90
26595;DHT22;14238;49.496;8.154;2023-05-07T13:11:00;22.10;99.90
26595;DHT22;14238;49.496;8.154;2023-05-07T13:13:29;22.10;99.90
26595;DHT22;14238;49.496;8.154;2023-05-07T13:15:55;22.00;99.90
26595;DHT22;14238;49.496;8.154;2023-05-07T13:18:20;22.10;99.90
26595;DHT22;14238;49.496;8.154;2023-05-07T13:20:46;22.00;99.90
26595;DHT22;14238;49.496;8.154;2023-05-07T13:23:11;21.70;99.90
26595;DHT22;14238;49.496;8.154;2023-05-07T13:25:37;21.60;99.90
26595;DHT22;14238;49.496;8.154;2023-05-07T13:28:02;21.50;99.90
26595;DHT22;14238;49.496;8.154;2023-05-07T13:30:29;21.50;99.90
26595;DHT22;14238;49.496;8.154;2023-05-07T13:32:55;21.30;99.90
26595;DHT22;14238;49.496;8.154;2023-05-07T13:35:21;21.30;99.90
26595;DHT22;14238;49.496;8.154;2023-05-07T13:37:47;21.20;99.90
26595;DHT22;14238;49.496;8.154;2023-05-07T13:40:14;21.10;99.90
26595;DHT22;14238;49.496;8.154;2023-05-07T13:42:40;21.00;99.90
26595;DHT22;14238;49.496;8.154;2023-05-07T13:45:07;20.90;99.90
26595;DHT22;14238;49.496;8.154;2023-05-07T13:47:32;20.70;99.90
26595;DHT22;14238;49.496;8.154;2023-05-07T13:49:58;20.60;99.90
26595;DHT22;14238;49.496;8.154;2023-05-07T13:52:23;20.60;99.90
26595;DHT22;14238;49.496;8.154;2023-05-07T13:54:49;20.50;99.90
26595;DHT22;14238;49.496;8.154;2023-05-07T13:57:14;20.50;99.90
26595;DHT22;14238;49.496;8.154;2023-05-07T13:59:40;20.40;99.90
26595;DHT22;14238;49.496;8.154;2023-05-07T14:02:06;20.20;99.90
26595;DHT22;14238;49.496;8.154;2023-05-07T14:04:32;20.00;99.90
26595;DHT22;14238;49.496;8.154;2023-05-07T14:06:58;20.00;99.90
26595;DHT22;14238;49.496;8.154;2023-05-07T14:09:24;19.80;99.90
26595;DHT22;14238;49.496;8.154;2023-05-07T14:11:49;19.70;99.90
26595;DHT22;14238;49.496;8.154;2023-05-07T14:14:19;19.60;99.90
26595;DHT22;14238;49.496;8.154;2023-05-07T14:16:45;19.40;99.90
26595;DHT22;14238;49.496;8.154;2023-05-07T14:19:11;19.10;99.90
26595;DHT22;14238;49.496;8.154;2023-05-07T14:21:37;18.90;99.90
26595;DHT22;14238;49.496;8.154;2023-05-07T14:24:03;18.70;99.90
26595;DHT22;14238;49.496;8.154;2023-05-07T14:26:28;18.60;99.90
26595;DHT22;14238;49.496;8.154;2023-05-07T14:28:54;18.70;99.90
26595;DHT22;14238;49.496;8.154;2023-05-07T14:31:22;18.60;99.90
26595;DHT22;14238;49.496;8.154;2023-05-07T14:33:48;18.60;99.90
26595;DHT22;14238;49.496;8.154;2023-05-07T14:36:15;18.50;99.90
26595;DHT22;14238;49.496;8.154;2023-05-07T14:38:40;18.40;99.90
26595;DHT22;14238;49.496;8.154;2023-05-07T14:41:06;18.50;99.90
26595;DHT22;14238;49.496;8.154;2023-05-07T14:43:32;18.50;99.90
26595;DHT22;14238;49.496;8.154;2023-05-07T14:45:57;18.50;99.90
26595;DHT22;14238;49.496;8.154;2023-05-07T14:48:23;18.40;99.90
26595;DHT22;14238;49.496;8.154;2023-05-07T14:50:48;18.40;99.90
26595;DHT22;14238;49.496;8.154;2023-05-07T14:53:14;18.40;99.90
26595;DHT22;14238;49.496;8.154;2023-05-07T14:55:40;18.50;99.90
26595;DHT22;14238;49.496;8.154;2023-05-07T14:58:05;18.40;99.90
26595;DHT22;14238;49.496;8.154;2023-05-07T15:00:31;18.30;99.90
26595;DHT22;14238;49.496;8.154;2023-05-07T15:03:07;18.10;99.90
26595;DHT22;14238;49.496;8.154;2023-05-07T15:05:33;18.00;99.90
26595;DHT22;14238;49.496;8.154;2023-05-07T15:07:59;17.90;99.90
26595;DHT22;14238;49.496;8.154;2023-05-07T15:10:25;17.90;99.90
26595;DHT22;14238;49.496;8.154;2023-05-07T15:12:51;17.70;99.90
26595;DHT22;14238;49.496;8.154;2023-05-07T15:15:16;17.70;99.90
26595;DHT22;14238;49.496;8.154;2023-05-07T15:17:42;17.70;99.90
26595;DHT22;14238;49.496;8.154;2023-05-07T15:20:08;17.80;99.90
26595;DHT22;14238;49.496;8.154;2023-05-07T15:22:34;17.90;99.90
26595;DHT22;14238;49.496;8.154;2023-05-07T15:25:01;17.60;99.90
26595;DHT22;14238;49.496;8.154;2023-05-07T15:27:27;17.50;99.90
26595;DHT22;14238;49.496;8.154;2023-05-07T15:29:52;17.30;99.90
26595;DHT22;14238;49.496;8.154;2023-05-07T15:32:18;17.30;99.90
26595;DHT22;14238;49.496;8.154;2023-05-07T15:34:43;17.30;99.90